Buckhorn, Canada
Current Conditions -  °F | °C
As of 7:00 PM on Friday 21 Nov 2014 (Local Time) from CYPQ Reporting Station
Broken Clouds Broken Clouds  
Wind Chill: 12°   Ceiling: 18000
Heat Index: 21°   Visibility: 9mi
Dew Point: 10°   Wind: 8mph
Humidity: 63%   Direction: 240°WSW
Pressure: 30.38"   Gusts: NA
Location:  44.55°N, 78.33°W
Report Text: CYPQ 220000Z AUTO 24007KT 9SM FEW043 BKN180 M06/M12 A3038 RMK SLP300
Loading
Personal Weather Stations






























Interactive Weather Map New forecast layout! Learn more

10-Day Weather Forecast

Advertisements
Track Severe Weather on mobile